createdAt,value
2019-04-23T00:01:41.870Z,55.47
2019-04-23T00:04:10.100Z,55.63
2019-04-23T00:07:10.713Z,55.32
2019-04-23T00:12:05.718Z,55.54
2019-04-23T00:14:39.553Z,55.36
2019-04-23T00:17:12.066Z,55.39
2019-04-23T00:19:43.407Z,55.40
2019-04-23T00:22:37.044Z,55.20
2019-04-23T00:28:10.346Z,55.21
2019-04-23T00:30:45.359Z,55.24
2019-04-23T00:33:15.664Z,55.09
2019-04-23T00:35:44.090Z,55.19
2019-04-23T00:40:53.938Z,55.00
2019-04-23T00:43:26.986Z,54.94
2019-04-23T00:45:59.406Z,54.89
2019-04-23T00:51:03.455Z,54.84
2019-04-23T00:53:48.083Z,54.85
2019-04-23T00:58:58.072Z,54.84
2019-04-23T01:01:36.876Z,54.87
2019-04-23T01:04:20.455Z,54.80
2019-04-23T01:06:39.123Z,54.82
2019-04-23T01:09:11.762Z,54.89
2019-04-23T01:11:46.601Z,54.75
2019-04-23T01:14:21.537Z,54.78
2019-04-23T01:16:49.414Z,54.76
2019-04-23T01:19:37.129Z,54.70
2019-04-23T01:22:06.800Z,54.68
2019-04-23T01:25:04.622Z,54.60
2019-04-23T01:30:38.772Z,54.65
2019-04-23T01:33:16.063Z,54.52
2019-04-23T01:35:50.986Z,54.50
2019-04-23T01:38:18.465Z,54.42
2019-04-23T01:40:47.538Z,54.27
2019-04-23T01:43:30.234Z,54.37
2019-04-23T01:46:02.443Z,54.30
2019-04-23T01:48:42.434Z,54.32
2019-04-23T01:51:01.795Z,54.21
2019-04-23T01:53:45.569Z,54.28
2019-04-23T01:56:19.686Z,54.26
2019-04-23T02:01:47.551Z,54.26
2019-04-23T02:04:04.430Z,54.29
2019-04-23T02:06:39.104Z,54.25
2019-04-23T02:09:12.653Z,54.23
2019-04-23T02:11:43.829Z,54.22
2019-04-23T02:14:24.443Z,54.27
2019-04-23T02:16:55.153Z,54.21
2019-04-23T02:19:32.134Z,54.23
2019-04-23T02:22:03.973Z,54.17
2019-04-23T02:24:41.292Z,54.14
2019-04-23T02:27:22.385Z,54.27
2019-04-23T02:32:29.663Z,54.22
2019-04-23T02:35:11.717Z,54.20
2019-04-23T02:37:53.825Z,54.24
2019-04-23T02:45:36.108Z,54.21
2019-04-23T02:48:01.498Z,54.32
2019-04-23T02:53:14.423Z,54.25
2019-04-23T02:55:59.559Z,54.35
2019-04-23T03:01:11.358Z,54.41
2019-04-23T03:11:25.664Z,54.48
2019-04-23T03:19:02.516Z,54.58
2019-04-23T03:29:49.074Z,54.59
2019-04-23T03:37:32.983Z,54.73
2019-04-23T03:39:56.878Z,54.80
2019-04-23T03:47:32.053Z,54.79
2019-04-23T03:55:18.476Z,54.79
2019-04-23T03:58:06.998Z,54.76
2019-04-23T04:03:58.457Z,54.80
2019-04-23T04:05:36.040Z,54.76
2019-04-23T04:08:13.326Z,54.79
2019-04-23T04:10:52.430Z,54.64
2019-04-23T04:13:24.320Z,54.30
2019-04-23T04:15:57.127Z,54.05
2019-04-23T04:26:13.787Z,53.26
2019-04-23T04:28:48.484Z,52.52
2019-04-23T04:31:20.942Z,52.81
2019-04-23T04:36:28.122Z,52.32
2019-04-23T04:38:59.053Z,52.26
2019-04-23T04:41:48.334Z,51.93
2019-04-23T04:44:27.474Z,51.56
2019-04-23T04:46:45.827Z,51.52
2019-04-23T04:49:49.228Z,51.11
2019-04-23T04:57:05.452Z,51.01
2019-04-23T05:07:30.453Z,50.88
2019-04-23T05:10:09.326Z,50.16
2019-04-23T05:12:40.968Z,50.51
2019-04-23T05:15:03.223Z,50.13
2019-04-23T05:20:12.545Z,49.49
2019-04-23T05:22:56.897Z,48.60
2019-04-23T05:25:12.596Z,48.29
2019-04-23T05:28:02.784Z,46.97
2019-04-23T05:30:36.367Z,45.82
2019-04-23T05:33:05.930Z,44.90
2019-04-23T05:36:04.588Z,44.93
2019-04-23T05:38:32.210Z,44.40
2019-04-23T05:43:23.522Z,43.05
2019-04-23T05:45:57.387Z,43.81
2019-04-23T05:48:46.968Z,43.11
2019-04-23T05:53:42.520Z,42.99
2019-04-23T05:56:15.569Z,43.33
2019-04-23T05:58:55.775Z,41.63
2019-04-23T06:01:49.896Z,42.76
2019-04-23T06:07:08.404Z,41.55
2019-04-23T06:14:28.466Z,42.51
2019-04-23T06:17:03.647Z,42.55
2019-04-23T06:19:24.590Z,42.93
2019-04-23T06:22:18.752Z,42.33
2019-04-23T06:24:44.347Z,42.81
2019-04-23T06:27:19.834Z,42.65
2019-04-23T06:30:01.124Z,42.41
2019-04-23T06:32:24.244Z,42.97
2019-04-23T06:34:56.862Z,42.94
2019-04-23T06:37:47.670Z,42.91
2019-04-23T06:40:10.135Z,42.97
2019-04-23T06:42:44.688Z,43.24
2019-04-23T06:45:20.560Z,43.09
2019-04-23T06:48:01.901Z,43.47
2019-04-23T06:50:35.566Z,43.05
2019-04-23T06:53:01.913Z,43.22
2019-04-23T06:55:45.724Z,43.13
2019-04-23T06:58:24.031Z,43.31
2019-04-23T07:00:59.100Z,43.36
2019-04-23T07:03:31.798Z,43.51
2019-04-23T07:06:11.461Z,43.38
2019-04-23T07:09:03.200Z,43.58
2019-04-23T07:11:23.602Z,43.28
2019-04-23T07:13:54.793Z,43.32
2019-04-23T07:16:34.681Z,43.31
2019-04-23T07:19:01.585Z,43.43
2019-04-23T07:21:27.942Z,43.57
2019-04-23T07:24:13.415Z,43.36
2019-04-23T07:26:38.734Z,43.60
2019-04-23T07:29:16.038Z,43.38
2019-04-23T07:31:50.110Z,43.59
2019-04-23T07:34:20.397Z,43.45
2019-04-23T07:36:55.439Z,43.58
2019-04-23T07:39:37.037Z,43.40
2019-04-23T07:42:29.808Z,43.56
2019-04-23T07:48:06.574Z,42.78
2019-04-23T07:50:39.121Z,43.07
2019-04-23T07:53:19.660Z,43.09
2019-04-23T07:55:49.878Z,42.69
2019-04-23T08:00:49.004Z,42.65
2019-04-23T08:03:29.015Z,42.69
2019-04-23T08:06:04.354Z,42.47
2019-04-23T08:08:37.824Z,42.42
2019-04-23T08:11:30.632Z,42.40
2019-04-23T08:13:53.294Z,41.96
2019-04-23T08:18:59.093Z,41.87
2019-04-23T08:21:32.178Z,41.43
2019-04-23T08:24:10.215Z,41.68
2019-04-23T08:26:55.094Z,41.16
2019-04-23T08:29:24.873Z,41.17
2019-04-23T08:32:07.801Z,41.24
2019-04-23T08:34:43.299Z,40.19
2019-04-23T08:39:43.544Z,40.63
2019-04-23T08:42:33.463Z,39.90
2019-04-23T08:45:18.631Z,39.68
2019-04-23T08:47:52.653Z,39.73
2019-04-23T08:50:27.419Z,39.74
2019-04-23T08:53:04.518Z,39.41
2019-04-23T08:55:44.265Z,39.24
2019-04-23T08:58:06.008Z,39.35
2019-04-23T09:00:58.576Z,39.63
2019-04-23T09:03:25.118Z,38.27
2019-04-23T09:08:27.278Z,38.89
2019-04-23T09:11:06.503Z,38.55
2019-04-23T09:16:08.854Z,38.36
2019-04-23T09:19:07.362Z,37.50
2019-04-23T09:23:53.997Z,37.65
2019-04-23T09:26:22.721Z,37.91
2019-04-23T09:28:59.769Z,37.02
2019-04-23T09:34:26.091Z,37.09
2019-04-23T09:37:12.008Z,37.03
2019-04-23T09:39:54.152Z,37.08
2019-04-23T09:42:27.984Z,36.11
2019-04-23T09:44:58.143Z,36.14
2019-04-23T09:47:51.934Z,36.44
2019-04-23T09:50:20.158Z,36.66
2019-04-23T09:53:06.281Z,35.89
2019-04-23T09:55:35.808Z,36.36
2019-04-23T10:03:03.610Z,36.46
2019-04-23T10:05:31.108Z,36.85
2019-04-23T10:08:05.231Z,36.83
2019-04-23T10:10:32.270Z,36.56
2019-04-23T10:13:06.088Z,36.55
2019-04-23T10:15:41.132Z,36.82
2019-04-23T10:18:14.086Z,36.40
2019-04-23T10:20:46.737Z,36.73
2019-04-23T10:23:21.169Z,37.07
2019-04-23T10:25:54.121Z,36.08
2019-04-23T10:28:40.295Z,36.36
2019-04-23T10:31:14.550Z,36.13
2019-04-23T10:33:48.238Z,36.51
2019-04-23T10:36:23.916Z,36.40
2019-04-23T10:39:02.572Z,36.09
2019-04-23T10:41:30.660Z,36.17
2019-04-23T10:44:09.034Z,36.31
2019-04-23T10:47:12.363Z,36.05
2019-04-23T10:49:55.443Z,36.18
2019-04-23T10:57:25.259Z,36.39
2019-04-23T10:59:58.547Z,36.17
2019-04-23T11:07:33.956Z,36.26
2019-04-23T11:10:21.905Z,36.31
2019-04-23T11:12:48.954Z,36.22
2019-04-23T11:15:50.682Z,36.12
2019-04-23T11:18:39.932Z,36.28
2019-04-23T11:20:49.370Z,36.30
2019-04-23T11:23:22.465Z,35.76
2019-04-23T11:25:50.432Z,35.65
2019-04-23T11:31:13.050Z,35.91
2019-04-23T11:33:42.739Z,35.83
2019-04-23T11:39:00.624Z,36.17
2019-04-23T11:41:35.257Z,36.26
2019-04-23T11:43:58.922Z,36.56
2019-04-23T11:50:18.918Z,36.41
2019-04-23T11:52:00.144Z,36.43
2019-04-23T11:54:21.352Z,36.40
2019-04-23T11:57:14.918Z,36.35
2019-04-23T11:59:31.658Z,35.98
2019-04-23T12:02:19.317Z,35.00
2019-04-23T12:04:49.920Z,34.88
2019-04-23T12:07:22.644Z,35.31
2019-04-23T12:10:23.692Z,34.90
2019-04-23T12:12:33.059Z,34.90
2019-04-23T12:17:50.868Z,34.64
2019-04-23T12:20:33.666Z,33.96
2019-04-23T12:23:18.970Z,34.31
2019-04-23T12:28:13.470Z,34.75
2019-04-23T12:30:45.387Z,34.72
2019-04-23T12:33:31.464Z,35.07
2019-04-23T12:35:55.684Z,34.67
2019-04-23T12:38:28.375Z,34.52
2019-04-23T12:41:10.131Z,34.60
2019-04-23T12:43:29.424Z,34.36
2019-04-23T12:46:16.279Z,34.44
2019-04-23T12:49:03.195Z,34.82
2019-04-23T12:51:38.454Z,35.10
2019-04-23T12:53:56.453Z,34.79
2019-04-23T12:56:40.335Z,35.03
2019-04-23T12:59:04.602Z,35.29
2019-04-23T13:01:52.423Z,35.15
2019-04-23T13:04:19.486Z,34.85
2019-04-23T13:06:52.770Z,34.78
2019-04-23T13:09:42.899Z,34.91
2019-04-23T13:12:12.625Z,35.01
2019-04-23T13:14:42.071Z,35.28
2019-04-23T13:17:27.471Z,35.32
2019-04-23T13:20:00.184Z,35.34
2019-04-23T13:22:24.190Z,35.55
2019-04-23T13:24:57.948Z,35.63
2019-04-23T13:27:39.986Z,35.75
2019-04-23T13:32:46.414Z,35.58
2019-04-23T13:35:27.631Z,35.57
2019-04-23T13:38:10.588Z,35.70
2019-04-23T13:40:36.186Z,35.62
2019-04-23T13:43:01.107Z,35.61
2019-04-23T13:45:54.313Z,35.74
2019-04-23T13:48:13.422Z,35.64
2019-04-23T13:55:49.114Z,35.84
2019-04-23T14:03:42.933Z,36.21
2019-04-23T14:06:18.198Z,36.09
2019-04-23T14:21:30.945Z,35.66
2019-04-23T14:26:41.666Z,35.44
2019-04-23T14:29:21.071Z,35.42
2019-04-23T14:31:53.554Z,35.24
2019-04-23T14:34:24.952Z,35.02
2019-04-23T14:39:41.040Z,35.43
2019-04-23T14:42:21.382Z,35.58
2019-04-23T14:44:52.407Z,35.78
2019-04-23T14:47:37.995Z,35.65
2019-04-23T14:50:22.954Z,35.77
2019-04-23T14:52:41.290Z,35.99
2019-04-23T14:58:10.488Z,35.63
2019-04-23T15:00:27.050Z,35.74
2019-04-23T15:02:59.430Z,35.86
2019-04-23T15:05:36.210Z,35.93
2019-04-23T15:08:09.393Z,35.98
2019-04-23T15:13:16.921Z,36.18
2019-04-23T15:15:58.022Z,36.28
2019-04-23T15:18:48.773Z,36.29
2019-04-23T15:24:04.249Z,36.53
2019-04-23T15:29:04.541Z,36.88
2019-04-23T15:31:55.520Z,37.17
2019-04-23T15:34:27.205Z,37.31
2019-04-23T15:37:33.532Z,37.43
2019-04-23T15:44:57.731Z,37.80
2019-04-23T15:47:24.933Z,37.52
2019-04-23T15:50:17.567Z,38.02
2019-04-23T15:52:44.322Z,38.04
2019-04-23T16:00:13.238Z,37.81
2019-04-23T16:02:22.465Z,37.78
2019-04-23T16:04:56.013Z,37.72
2019-04-23T16:07:48.547Z,37.92
2019-04-23T16:10:29.490Z,38.00
2019-04-23T16:13:14.881Z,38.06
2019-04-23T16:15:43.370Z,37.99
2019-04-23T16:18:29.998Z,37.98
2019-04-23T16:21:00.883Z,38.10
2019-04-23T16:23:29.120Z,38.34
2019-04-23T16:26:12.499Z,38.30
2019-04-23T16:29:00.430Z,38.25
2019-04-23T16:31:20.731Z,38.28
2019-04-23T16:34:08.612Z,38.44
2019-04-23T16:36:32.598Z,38.36
2019-04-23T16:39:10.709Z,38.75
2019-04-23T16:41:52.119Z,38.93
2019-04-23T16:44:34.154Z,38.77
2019-04-23T16:46:56.327Z,39.59
2019-04-23T16:49:33.038Z,40.01
2019-04-23T16:52:03.566Z,42.00
2019-04-23T16:54:43.385Z,42.67
2019-04-23T17:00:02.885Z,43.72
2019-04-23T17:02:19.310Z,42.80
2019-04-23T17:04:56.660Z,43.30
2019-04-23T17:07:24.268Z,43.43
2019-04-23T17:10:11.518Z,43.23
2019-04-23T17:12:38.707Z,43.14
2019-04-23T17:17:44.942Z,42.76
2019-04-23T17:20:27.174Z,43.13
2019-04-23T17:23:05.179Z,42.90
2019-04-23T17:25:32.966Z,42.62
2019-04-23T17:28:12.095Z,43.22
2019-04-23T17:30:51.751Z,42.45
2019-04-23T17:41:50.069Z,42.50
2019-04-23T17:46:50.582Z,42.43
2019-04-23T17:49:31.215Z,42.39
2019-04-23T17:52:07.088Z,42.39
2019-04-23T18:00:25.441Z,42.67
2019-04-23T18:02:51.711Z,42.69
2019-04-23T18:05:06.333Z,42.80
2019-04-23T18:07:43.900Z,43.03
2019-04-23T18:15:15.797Z,43.52
2019-04-23T18:17:54.646Z,43.58
2019-04-23T18:20:52.184Z,43.91
2019-04-23T18:23:05.720Z,44.47
2019-04-23T18:25:51.636Z,43.94
2019-04-23T18:28:19.940Z,44.66
2019-04-23T18:31:06.156Z,44.74
2019-04-23T18:36:19.674Z,44.97
2019-04-23T18:41:25.248Z,45.77
2019-04-23T18:44:16.310Z,45.65
2019-04-23T18:46:43.678Z,45.56
2019-04-23T18:49:29.716Z,45.99
2019-04-23T18:51:49.730Z,46.05
2019-04-23T18:54:26.242Z,46.00
2019-04-23T18:57:09.042Z,46.18
2019-04-23T19:02:20.479Z,46.04
2019-04-23T19:05:11.274Z,45.89
2019-04-23T19:07:57.117Z,46.20
2019-04-23T19:10:30.743Z,46.40
2019-04-23T19:13:07.708Z,46.18
2019-04-23T19:15:46.137Z,46.26
2019-04-23T19:18:14.772Z,46.25
2019-04-23T19:21:09.305Z,45.55
2019-04-23T19:23:32.673Z,45.82
2019-04-23T19:25:59.170Z,46.05
2019-04-23T19:31:07.383Z,45.91
2019-04-23T19:36:26.208Z,45.66
2019-04-23T19:39:01.045Z,45.61
2019-04-23T19:41:44.638Z,45.62
2019-04-23T19:44:02.599Z,45.44
2019-04-23T19:49:23.538Z,45.35
2019-04-23T19:57:02.053Z,45.04
2019-04-23T20:02:07.250Z,44.76
2019-04-23T20:04:41.832Z,44.77
2019-04-23T20:07:25.516Z,44.82
2019-04-23T20:09:56.480Z,44.81
2019-04-23T20:12:28.332Z,44.64
2019-04-23T20:14:57.638Z,44.55
2019-04-23T20:20:25.377Z,44.41
2019-04-23T20:22:47.287Z,44.43
2019-04-23T20:28:09.605Z,44.26
2019-04-23T20:30:57.714Z,44.31
2019-04-23T20:33:52.565Z,44.32
2019-04-23T20:35:46.915Z,44.30
2019-04-23T20:40:53.608Z,44.37
2019-04-23T20:43:32.418Z,44.31
2019-04-23T20:49:07.788Z,44.43
2019-04-23T20:51:04.359Z,44.57
2019-04-23T20:53:46.969Z,44.37
2019-04-23T20:56:25.409Z,44.57
2019-04-23T20:59:01.389Z,44.64
2019-04-23T21:01:37.061Z,44.68
2019-04-23T21:04:17.957Z,44.90
2019-04-23T21:06:51.836Z,44.90
2019-04-23T21:09:31.174Z,45.08
2019-04-23T21:12:00.753Z,45.10
2019-04-23T21:14:57.292Z,45.50
2019-04-23T21:17:03.889Z,45.59
2019-04-23T21:19:50.503Z,45.91
2019-04-23T21:22:14.038Z,45.71
2019-04-23T21:27:38.692Z,46.21
2019-04-23T21:30:03.378Z,46.32
2019-04-23T21:32:40.994Z,46.57
2019-04-23T21:35:20.309Z,46.72
2019-04-23T21:38:00.415Z,46.84
2019-04-23T21:40:40.216Z,47.11
2019-04-23T21:43:02.819Z,47.25
2019-04-23T21:45:48.777Z,47.57
2019-04-23T21:53:16.717Z,47.63
2019-04-23T21:56:08.640Z,47.71
2019-04-23T21:58:35.055Z,48.11
2019-04-23T22:01:09.497Z,47.95
2019-04-23T22:04:01.795Z,48.28
2019-04-23T22:06:22.478Z,48.36
2019-04-23T22:08:52.896Z,48.38
2019-04-23T22:11:53.724Z,48.18
2019-04-23T22:14:03.793Z,48.62
2019-04-23T22:16:42.925Z,48.40
2019-04-23T22:19:15.038Z,49.01
2019-04-23T22:21:47.234Z,48.99
2019-04-23T22:27:05.533Z,49.08
2019-04-23T22:29:37.940Z,49.13
2019-04-23T22:32:02.374Z,49.00
2019-04-23T22:34:47.123Z,48.73
2019-04-23T22:37:14.827Z,48.66
2019-04-23T22:39:54.224Z,48.72
2019-04-23T22:42:45.138Z,48.71
2019-04-23T22:47:39.463Z,48.62
2019-04-23T22:50:11.217Z,48.47
2019-04-23T22:52:48.703Z,48.58
2019-04-23T22:55:12.806Z,48.50
2019-04-23T23:00:47.007Z,48.61
2019-04-23T23:03:08.039Z,48.77
2019-04-23T23:06:06.315Z,48.40
2019-04-23T23:08:30.911Z,48.56
2019-04-23T23:10:57.251Z,48.67
2019-04-23T23:13:48.048Z,48.45
2019-04-23T23:18:42.612Z,48.71
2019-04-23T23:21:20.639Z,48.64
2019-04-23T23:23:52.824Z,48.87
2019-04-23T23:26:20.331Z,48.87
2019-04-23T23:28:55.108Z,48.83
2019-04-23T23:31:40.010Z,48.97
2019-04-23T23:34:08.122Z,49.02
2019-04-23T23:36:48.126Z,48.88
2019-04-23T23:39:22.690Z,49.12
2019-04-23T23:42:00.375Z,49.38
2019-04-23T23:47:14.735Z,49.49
2019-04-23T23:49:48.520Z,49.61
2019-04-23T23:52:02.806Z,49.72
2019-04-23T23:54:48.676Z,49.48
2019-04-23T23:57:16.634Z,49.56
